createdAt,value
2019-03-16T00:01:23.622Z,98945.59
2019-03-16T00:03:53.970Z,98945.91
2019-03-16T00:06:24.314Z,98941.03
2019-03-16T00:08:54.650Z,98942.70
2019-03-16T00:11:26.464Z,98932.95
2019-03-16T00:13:56.821Z,98929.59
2019-03-16T00:16:27.169Z,98947.25
2019-03-16T00:18:57.519Z,98943.90
2019-03-16T00:21:27.944Z,98942.22
2019-03-16T00:23:58.309Z,98952.83
2019-03-16T00:26:28.660Z,98950.97
2019-03-16T00:28:58.988Z,98968.45
2019-03-16T00:31:29.320Z,98970.15
2019-03-16T00:33:59.660Z,98971.00
2019-03-16T00:36:30.002Z,98980.91
2019-03-16T00:39:00.334Z,98968.31
2019-03-16T00:41:30.680Z,98973.36
2019-03-16T00:44:01.031Z,98977.73
2019-03-16T00:46:31.411Z,98966.30
2019-03-16T00:49:01.691Z,98967.31
2019-03-16T00:51:32.043Z,98973.71
2019-03-16T00:54:02.408Z,98974.89
2019-03-16T00:56:32.695Z,98974.22
2019-03-16T00:59:03.039Z,98976.39
2019-03-16T01:01:33.372Z,98985.66
2019-03-16T01:04:03.704Z,98987.68
2019-03-16T01:06:34.044Z,98994.25
2019-03-16T01:09:07.549Z,98988.19
2019-03-16T01:11:37.888Z,98998.29
2019-03-16T01:14:08.206Z,99001.83
2019-03-16T01:16:39.635Z,98995.94
2019-03-16T01:19:09.984Z,98997.63
2019-03-16T01:21:40.325Z,99007.72
2019-03-16T01:24:10.661Z,99014.28
2019-03-16T01:26:40.940Z,99003.84
2019-03-16T01:29:11.281Z,99020.83
2019-03-16T01:31:41.635Z,99028.97
2019-03-16T01:34:11.962Z,99025.94
2019-03-16T01:36:42.290Z,99028.97
2019-03-16T01:39:12.569Z,99027.47
2019-03-16T01:41:42.932Z,99032.80
2019-03-16T01:44:13.262Z,99035.66
2019-03-16T01:46:43.624Z,99043.41
2019-03-16T01:49:13.885Z,99025.89
2019-03-16T01:51:44.263Z,99060.23
2019-03-16T01:54:14.577Z,99069.66
2019-03-16T01:56:44.937Z,99065.66
2019-03-16T01:59:15.274Z,99072.05
2019-03-16T02:01:45.608Z,99080.13
2019-03-16T02:04:15.952Z,99067.34
2019-03-16T02:06:46.240Z,99086.02
2019-03-16T02:09:16.564Z,99087.20
2019-03-16T02:11:46.914Z,99101.50
2019-03-16T02:14:17.194Z,99110.92
2019-03-16T02:16:48.514Z,99105.70
2019-03-16T02:19:19.037Z,99114.63
2019-03-16T02:21:49.423Z,99115.81
2019-03-16T02:24:19.845Z,99110.25
2019-03-16T02:26:50.197Z,99126.56
2019-03-16T02:29:20.557Z,99127.91
2019-03-16T02:31:50.886Z,99135.16
2019-03-16T02:34:21.230Z,99149.28
2019-03-16T02:36:52.753Z,99141.37
2019-03-16T02:39:23.100Z,99161.90
2019-03-16T02:41:53.457Z,99157.35
2019-03-16T02:44:23.726Z,99162.22
2019-03-16T02:46:54.060Z,99159.19
2019-03-16T02:49:24.401Z,99177.51
2019-03-16T02:51:54.764Z,99163.22
2019-03-16T02:54:25.128Z,99184.06
2019-03-16T02:56:55.394Z,99169.60
2019-03-16T02:59:25.756Z,99180.02
2019-03-16T03:01:57.076Z,99181.39
2019-03-16T03:04:27.450Z,99190.12
2019-03-16T03:06:57.728Z,99195.52
2019-03-16T03:09:28.017Z,99200.55
2019-03-16T03:11:58.358Z,99206.28
2019-03-16T03:14:30.311Z,99225.47
2019-03-16T03:17:00.683Z,99224.45
2019-03-16T03:19:31.034Z,99222.06
2019-03-16T03:22:01.384Z,99235.86
2019-03-16T03:24:31.734Z,99246.31
2019-03-16T03:27:02.238Z,99259.75
2019-03-16T03:29:32.596Z,99256.61
2019-03-16T03:32:02.948Z,99251.36
2019-03-16T03:34:33.414Z,99258.09
2019-03-16T03:37:03.687Z,99261.42
2019-03-16T03:39:34.037Z,99263.48
2019-03-16T03:42:04.386Z,99267.84
2019-03-16T03:44:34.713Z,99264.98
2019-03-16T03:47:05.069Z,99275.72
2019-03-16T03:49:35.575Z,99282.81
2019-03-16T03:52:06.990Z,99296.77
2019-03-16T03:54:37.341Z,99288.53
2019-03-16T03:57:09.150Z,99296.42
2019-03-16T03:59:39.499Z,99295.05
2019-03-16T04:02:09.852Z,99304.66
2019-03-16T04:04:40.195Z,99312.38
2019-03-16T04:07:10.609Z,99317.09
2019-03-16T04:09:40.957Z,99318.98
2019-03-16T04:12:11.340Z,99327.81
2019-03-16T04:14:41.883Z,99322.28
2019-03-16T04:17:12.374Z,99322.11
2019-03-16T04:19:42.753Z,99317.67
2019-03-16T04:22:13.062Z,99329.11
2019-03-16T04:24:45.348Z,99333.70
2019-03-16T04:27:16.740Z,99352.85
2019-03-16T04:29:47.421Z,99332.52
2019-03-16T04:32:17.776Z,99342.06
2019-03-16T04:34:48.155Z,99358.20
2019-03-16T04:37:18.523Z,99366.28
2019-03-16T04:39:48.866Z,99368.60
2019-03-16T04:42:19.219Z,99372.11
2019-03-16T04:44:49.541Z,99378.36
2019-03-16T04:47:19.895Z,99396.72
2019-03-16T04:49:50.239Z,99393.66
2019-03-16T04:52:20.588Z,99397.35
2019-03-16T04:54:51.242Z,99406.32
2019-03-16T04:57:21.597Z,99403.95
2019-03-16T04:59:51.932Z,99412.14
2019-03-16T05:02:23.454Z,99414.36
2019-03-16T05:04:53.778Z,99421.13
2019-03-16T05:07:24.164Z,99431.22
2019-03-16T05:09:54.510Z,99439.95
2019-03-16T05:12:24.849Z,99435.58
2019-03-16T05:14:55.195Z,99440.89
2019-03-16T05:17:25.534Z,99444.77
2019-03-16T05:19:55.858Z,99443.58
2019-03-16T05:22:26.207Z,99460.03
2019-03-16T05:24:56.584Z,99456.89
2019-03-16T05:27:26.924Z,99459.39
2019-03-16T05:29:57.359Z,99469.38
2019-03-16T05:32:27.877Z,99479.91
2019-03-16T05:34:59.136Z,99480.02
2019-03-16T05:37:29.628Z,99489.05
2019-03-16T05:39:59.975Z,99489.08
2019-03-16T05:42:30.322Z,99498.99
2019-03-16T05:45:00.653Z,99499.61
2019-03-16T05:47:31.010Z,99512.89
2019-03-16T05:50:01.380Z,99509.17
2019-03-16T05:52:32.798Z,99514.33
2019-03-16T05:55:03.269Z,99513.67
2019-03-16T05:57:33.687Z,99507.13
2019-03-16T06:00:09.957Z,99519.21
2019-03-16T06:02:40.883Z,99524.16
2019-03-16T06:05:11.597Z,99530.42
2019-03-16T06:07:42.037Z,99538.12
2019-03-16T06:10:12.763Z,99545.69
2019-03-16T06:12:46.296Z,99538.84
2019-03-16T06:15:15.238Z,99549.86
2019-03-16T06:17:45.635Z,99561.44
2019-03-16T06:20:16.099Z,99572.91
2019-03-16T06:22:46.430Z,99565.67
2019-03-16T06:25:16.784Z,99576.09
2019-03-16T06:27:47.059Z,99579.14
2019-03-16T06:30:20.655Z,99570.03
2019-03-16T06:32:49.536Z,99573.02
2019-03-16T06:35:24.986Z,99582.84
2019-03-16T06:37:51.951Z,99594.10
2019-03-16T06:40:22.300Z,99597.00
2019-03-16T06:42:52.662Z,99607.03
2019-03-16T06:45:22.938Z,99599.49
2019-03-16T06:47:54.760Z,99606.41
2019-03-16T06:50:25.549Z,99608.80
2019-03-16T06:52:55.909Z,99615.44
2019-03-16T06:55:27.864Z,99634.13
2019-03-16T06:57:58.296Z,99636.95
2019-03-16T07:00:29.313Z,99651.27
2019-03-16T07:02:59.645Z,99659.45
2019-03-16T07:05:38.159Z,99656.45
2019-03-16T07:08:02.731Z,99661.59
2019-03-16T07:10:33.073Z,99665.84
2019-03-16T07:13:03.522Z,99669.72
2019-03-16T07:15:34.619Z,99672.90
2019-03-16T07:18:05.199Z,99679.95
2019-03-16T07:20:35.531Z,99684.58
2019-03-16T07:23:05.863Z,99685.27
2019-03-16T07:25:36.208Z,99698.16
2019-03-16T07:28:06.541Z,99699.62
2019-03-16T07:30:37.317Z,99705.25
2019-03-16T07:33:07.841Z,99712.16
2019-03-16T07:35:38.206Z,99726.13
2019-03-16T07:38:08.587Z,99716.65
2019-03-16T07:40:39.714Z,99734.14
2019-03-16T07:43:10.851Z,99737.98
2019-03-16T07:45:41.205Z,99739.05
2019-03-16T07:48:11.774Z,99750.92
2019-03-16T07:50:43.191Z,99755.46
2019-03-16T07:53:13.868Z,99757.97
2019-03-16T07:55:44.163Z,99748.19
2019-03-16T07:58:14.513Z,99761.81
2019-03-16T08:00:45.590Z,99757.82
2019-03-16T08:03:16.592Z,99766.23
2019-03-16T08:05:47.438Z,99768.95
2019-03-16T08:08:17.883Z,99778.73
2019-03-16T08:10:48.297Z,99775.52
2019-03-16T08:13:18.680Z,99788.20
2019-03-16T08:15:49.038Z,99777.12
2019-03-16T08:18:19.389Z,99788.55
2019-03-16T08:20:49.744Z,99791.41
2019-03-16T08:23:20.148Z,99776.64
2019-03-16T08:25:50.482Z,99785.09
2019-03-16T08:28:20.892Z,99784.53
2019-03-16T08:30:51.275Z,99787.41
2019-03-16T08:33:21.710Z,99788.30
2019-03-16T08:35:52.100Z,99795.36
2019-03-16T08:38:22.660Z,99799.22
2019-03-16T08:40:52.975Z,99809.27
2019-03-16T08:43:23.327Z,99814.23
2019-03-16T08:45:53.787Z,99827.77
2019-03-16T08:48:24.204Z,99830.39
2019-03-16T08:50:54.721Z,99837.72
2019-03-16T08:53:25.103Z,99845.62
2019-03-16T08:55:57.172Z,99834.39
2019-03-16T08:58:27.570Z,99860.70
2019-03-16T09:00:57.953Z,99854.16
2019-03-16T09:03:28.562Z,99851.23
2019-03-16T09:05:58.944Z,99853.29
2019-03-16T09:08:29.504Z,99852.02
2019-03-16T09:10:59.881Z,99864.51
2019-03-16T09:13:30.253Z,99873.96
2019-03-16T09:16:00.644Z,99873.75
2019-03-16T09:18:31.151Z,99868.59
2019-03-16T09:21:03.255Z,99869.41
2019-03-16T09:23:33.709Z,99882.38
2019-03-16T09:26:04.141Z,99885.26
2019-03-16T09:28:35.561Z,99885.09
2019-03-16T09:31:06.118Z,99886.81
2019-03-16T09:33:36.560Z,99890.72
2019-03-16T09:36:07.059Z,99896.32
2019-03-16T09:38:37.487Z,99905.33
2019-03-16T09:41:07.893Z,99898.54
2019-03-16T09:43:38.270Z,99913.59
2019-03-16T09:46:08.663Z,99902.58
2019-03-16T09:48:39.031Z,99904.59
2019-03-16T09:51:09.641Z,99921.30
2019-03-16T09:53:41.493Z,99921.48
2019-03-16T09:56:11.843Z,99930.36
2019-03-16T09:58:43.834Z,99928.08
2019-03-16T10:01:15.484Z,99929.87
2019-03-16T10:03:46.170Z,99921.86
2019-03-16T10:06:17.140Z,99924.07
2019-03-16T10:08:47.566Z,99934.20
2019-03-16T10:11:17.913Z,99925.39
2019-03-16T10:13:48.300Z,99922.60
2019-03-16T10:16:18.714Z,99931.33
2019-03-16T10:18:49.090Z,99937.98
2019-03-16T10:21:19.801Z,99931.97
2019-03-16T10:23:50.198Z,99932.81
2019-03-16T10:26:20.539Z,99931.45
2019-03-16T10:28:51.084Z,99935.81
2019-03-16T10:31:21.543Z,99933.46
2019-03-16T10:33:51.871Z,99945.27
2019-03-16T10:36:22.268Z,99951.59
2019-03-16T10:38:52.630Z,99947.00
2019-03-16T10:41:22.981Z,99948.51
2019-03-16T10:43:53.343Z,99941.66
2019-03-16T10:46:23.709Z,99944.62
2019-03-16T10:48:55.755Z,99934.59
2019-03-16T10:51:27.688Z,99941.08
2019-03-16T10:53:58.255Z,99941.75
2019-03-16T10:56:28.647Z,99944.80
2019-03-16T10:58:59.406Z,99944.45
2019-03-16T11:01:30.534Z,99943.41
2019-03-16T11:04:01.533Z,99940.48
2019-03-16T11:06:31.984Z,99939.16
2019-03-16T11:09:02.867Z,99949.24
2019-03-16T11:11:33.237Z,99943.36
2019-03-16T11:14:04.637Z,99938.05
2019-03-16T11:16:35.017Z,99941.42
2019-03-16T11:19:05.384Z,99947.66
2019-03-16T11:21:35.753Z,99959.84
2019-03-16T11:24:06.119Z,99976.36
2019-03-16T11:26:36.469Z,99979.08
2019-03-16T11:29:09.325Z,99981.84
2019-03-16T11:31:38.885Z,99982.02
2019-03-16T11:34:09.528Z,99978.41
2019-03-16T11:36:40.442Z,99980.63
2019-03-16T11:39:10.950Z,99974.67
2019-03-16T11:41:41.323Z,99975.28
2019-03-16T11:44:12.655Z,99973.33
2019-03-16T11:46:43.004Z,99968.44
2019-03-16T11:49:13.372Z,99969.48
2019-03-16T11:51:43.775Z,99966.77
2019-03-16T11:54:13.969Z,99959.65
2019-03-16T11:56:44.348Z,99963.86
2019-03-16T11:59:21.437Z,99962.72
2019-03-16T12:01:46.706Z,99959.27
2019-03-16T12:04:17.082Z,99953.41
2019-03-16T12:06:47.821Z,99948.50
2019-03-16T12:09:18.173Z,99955.11
2019-03-16T12:11:48.506Z,99956.28
2019-03-16T12:14:18.864Z,99949.55
2019-03-16T12:16:49.289Z,99954.23
2019-03-16T12:19:19.580Z,99945.69
2019-03-16T12:21:49.940Z,99951.12
2019-03-16T12:24:20.240Z,99944.75
2019-03-16T12:26:50.568Z,99941.83
2019-03-16T12:29:33.103Z,99951.94
2019-03-16T12:31:53.558Z,99954.87
2019-03-16T12:34:23.993Z,99954.05
2019-03-16T12:36:54.401Z,99945.41
2019-03-16T12:39:24.736Z,99952.74
2019-03-16T12:41:55.099Z,99949.40
2019-03-16T12:44:25.448Z,99945.52
2019-03-16T12:46:55.845Z,99944.62
2019-03-16T12:49:26.204Z,99946.13
2019-03-16T12:51:56.654Z,99949.95
2019-03-16T12:54:27.094Z,99953.77
2019-03-16T12:56:57.438Z,99950.13
2019-03-16T12:59:27.740Z,99953.08
2019-03-16T13:01:58.103Z,99940.69
2019-03-16T13:04:28.497Z,99945.02
2019-03-16T13:06:58.856Z,99955.00
2019-03-16T13:09:29.221Z,99945.91
2019-03-16T13:11:59.694Z,99947.19
2019-03-16T13:14:30.072Z,99947.06
2019-03-16T13:17:00.420Z,99942.64
2019-03-16T13:19:30.977Z,99947.78
2019-03-16T13:22:01.366Z,99957.95
2019-03-16T13:24:31.713Z,99959.77
2019-03-16T13:27:02.426Z,99949.60
2019-03-16T13:29:32.863Z,99957.31
2019-03-16T13:32:03.231Z,99955.91
2019-03-16T13:34:35.224Z,99956.44
2019-03-16T13:37:05.575Z,99948.84
2019-03-16T13:39:35.949Z,99947.60
2019-03-16T13:42:06.292Z,99946.38
2019-03-16T13:44:37.015Z,99943.64
2019-03-16T13:47:07.409Z,99940.77
2019-03-16T13:49:38.169Z,99943.77
2019-03-16T13:52:08.547Z,99940.65
2019-03-16T13:54:39.202Z,99940.08
2019-03-16T13:57:09.559Z,99937.66
2019-03-16T13:59:39.939Z,99939.50
2019-03-16T14:02:10.265Z,99937.43
2019-03-16T14:04:41.076Z,99941.18
2019-03-16T14:07:12.945Z,99932.53
2019-03-16T14:09:43.691Z,99935.49
2019-03-16T14:12:14.268Z,99942.83
2019-03-16T14:14:44.952Z,99949.95
2019-03-16T14:17:16.620Z,99944.25
2019-03-16T14:19:47.422Z,99947.55
2019-03-16T14:22:19.459Z,99944.21
2019-03-16T14:24:49.861Z,99939.41
2019-03-16T14:27:20.339Z,99935.19
2019-03-16T14:29:51.589Z,99933.20
2019-03-16T14:32:23.701Z,99938.11
2019-03-16T14:34:54.417Z,99940.81
2019-03-16T14:37:25.026Z,99932.53
2019-03-16T14:39:55.693Z,99939.75
2019-03-16T14:42:26.356Z,99928.95
2019-03-16T14:44:57.956Z,99932.90
2019-03-16T14:47:28.709Z,99927.60
2019-03-16T14:49:59.308Z,99923.72
2019-03-16T14:52:30.323Z,99929.11
2019-03-16T14:55:01.010Z,99929.43
2019-03-16T14:57:31.443Z,99924.20
2019-03-16T15:00:01.935Z,99925.45
2019-03-16T15:02:33.988Z,99939.16
2019-03-16T15:05:05.853Z,99936.28
2019-03-16T15:07:36.385Z,99934.72
2019-03-16T15:10:11.923Z,99931.02
2019-03-16T15:12:42.507Z,99937.30
2019-03-16T15:15:18.079Z,99939.53
2019-03-16T15:17:48.861Z,99934.12
2019-03-16T15:20:19.479Z,99928.19
2019-03-16T15:22:49.995Z,99931.73
2019-03-16T15:25:22.360Z,99942.05
2019-03-16T15:27:52.970Z,99939.69
2019-03-16T15:30:23.503Z,99941.05
2019-03-16T15:32:54.169Z,99946.30
2019-03-16T15:35:24.803Z,99942.08
2019-03-16T15:37:56.002Z,99947.48
2019-03-16T15:40:26.794Z,99943.28
2019-03-16T15:42:57.398Z,99943.45
2019-03-16T15:45:31.801Z,99951.84
2019-03-16T15:48:02.223Z,99950.78
2019-03-16T15:50:32.728Z,99960.34
2019-03-16T15:53:03.247Z,99963.89
2019-03-16T15:55:34.042Z,99968.56
2019-03-16T15:58:08.417Z,99963.77
2019-03-16T16:00:36.748Z,99969.03
2019-03-16T16:03:09.212Z,99962.55
2019-03-16T16:05:39.429Z,99965.49
2019-03-16T16:08:09.931Z,99976.83
2019-03-16T16:10:40.830Z,99963.50
2019-03-16T16:13:11.318Z,99960.62
2019-03-16T16:15:41.647Z,99967.69
2019-03-16T16:18:12.069Z,99971.70
2019-03-16T16:20:42.436Z,99971.52
2019-03-16T16:23:12.815Z,99979.84
2019-03-16T16:25:43.150Z,99979.62
2019-03-16T16:28:15.341Z,99980.23
2019-03-16T16:30:46.208Z,99984.51
2019-03-16T16:33:16.856Z,99986.55
2019-03-16T16:35:48.402Z,99980.16
2019-03-16T16:38:18.726Z,99989.36
2019-03-16T16:40:49.076Z,99983.30
2019-03-16T16:43:20.595Z,99984.49
2019-03-16T16:45:51.005Z,99986.95
2019-03-16T16:48:21.408Z,99987.10
2019-03-16T16:50:51.931Z,99994.44
2019-03-16T16:53:22.265Z,99990.61
2019-03-16T16:55:52.698Z,99997.05
2019-03-16T16:58:23.040Z,99992.36
2019-03-16T17:00:53.390Z,99995.45
2019-03-16T17:03:23.564Z,100000.39
2019-03-16T17:05:54.075Z,99994.80
2019-03-16T17:08:24.489Z,99999.69
2019-03-16T17:10:56.057Z,99995.54
2019-03-16T17:13:26.417Z,99998.98
2019-03-16T17:15:57.812Z,99994.69
2019-03-16T17:18:28.147Z,100002.69
2019-03-16T17:20:58.492Z,100004.28
2019-03-16T17:23:28.866Z,100003.44
2019-03-16T17:25:59.293Z,100004.33
2019-03-16T17:28:29.682Z,100002.17
2019-03-16T17:31:02.858Z,100003.24
2019-03-16T17:33:33.441Z,100004.13
2019-03-16T17:36:03.843Z,100002.23
2019-03-16T17:38:34.308Z,100007.59
2019-03-16T17:41:04.717Z,100000.23
2019-03-16T17:43:35.090Z,100003.22
2019-03-16T17:46:05.521Z,99999.20
2019-03-16T17:48:35.914Z,99994.46
2019-03-16T17:51:06.467Z,99997.66
2019-03-16T17:53:37.787Z,99992.48
2019-03-16T17:56:08.138Z,99984.67
2019-03-16T17:58:38.470Z,99985.08
2019-03-16T18:01:09.797Z,99986.87
2019-03-16T18:03:40.376Z,99984.91
2019-03-16T18:06:10.805Z,99986.68
2019-03-16T18:08:41.263Z,99977.06
2019-03-16T18:11:13.710Z,99977.63
2019-03-16T18:13:44.078Z,99976.83
2019-03-16T18:16:14.426Z,99974.84
2019-03-16T18:18:44.985Z,99975.03
2019-03-16T18:21:15.617Z,99971.80
2019-03-16T18:23:45.984Z,99964.05
2019-03-16T18:26:16.482Z,99964.44
2019-03-16T18:28:47.592Z,99957.30
2019-03-16T18:31:17.902Z,99956.27
2019-03-16T18:33:48.250Z,99959.30
2019-03-16T18:36:18.638Z,99962.70
2019-03-16T18:38:49.184Z,99950.38
2019-03-16T18:41:19.557Z,99947.70
2019-03-16T18:43:49.951Z,99946.38
2019-03-16T18:46:20.422Z,99946.66
2019-03-16T18:48:50.713Z,99943.53
2019-03-16T18:51:23.786Z,99940.63
2019-03-16T18:53:54.142Z,99936.76
2019-03-16T18:56:24.486Z,99943.40
2019-03-16T18:58:54.854Z,99945.25
2019-03-16T19:01:25.223Z,99945.39
2019-03-16T19:03:55.588Z,99949.02
2019-03-16T19:06:27.462Z,99944.20
2019-03-16T19:08:57.820Z,99947.93
2019-03-16T19:11:28.482Z,99942.94
2019-03-16T19:13:58.866Z,99934.12
2019-03-16T19:16:29.277Z,99937.10
2019-03-16T19:18:59.805Z,99930.83
2019-03-16T19:21:30.370Z,99930.19
2019-03-16T19:24:00.771Z,99921.58
2019-03-16T19:26:33.877Z,99917.39
2019-03-16T19:29:04.302Z,99916.66
2019-03-16T19:31:36.110Z,99907.16
2019-03-16T19:34:06.481Z,99905.83
2019-03-16T19:36:36.818Z,99900.99
2019-03-16T19:39:07.391Z,99903.22
2019-03-16T19:41:37.782Z,99900.30
2019-03-16T19:44:08.458Z,99894.91
2019-03-16T19:46:38.820Z,99894.64
2019-03-16T19:49:09.740Z,99893.23
2019-03-16T19:51:40.194Z,99892.30
2019-03-16T19:54:11.202Z,99899.42
2019-03-16T19:56:41.838Z,99892.06
2019-03-16T19:59:12.353Z,99888.66
2019-03-16T20:01:42.914Z,99889.38
2019-03-16T20:04:13.370Z,99882.91
2019-03-16T20:06:44.887Z,99884.45
2019-03-16T20:09:16.124Z,99881.03
2019-03-16T20:11:47.071Z,99875.39
2019-03-16T20:14:18.477Z,99874.70
2019-03-16T20:16:48.806Z,99870.97
2019-03-16T20:19:19.673Z,99866.50
2019-03-16T20:21:50.246Z,99868.22
2019-03-16T20:24:21.251Z,99863.48
2019-03-16T20:26:52.433Z,99858.19
2019-03-16T20:29:23.422Z,99859.50
2019-03-16T20:31:57.632Z,99861.95
2019-03-16T20:34:31.869Z,99853.30
2019-03-16T20:37:03.011Z,99857.27
2019-03-16T20:39:33.744Z,99859.44
2019-03-16T20:42:04.232Z,99854.41
2019-03-16T20:44:34.992Z,99859.36
2019-03-16T20:47:05.737Z,99846.76
2019-03-16T20:49:36.628Z,99844.24
2019-03-16T20:52:08.106Z,99851.79
2019-03-16T20:54:39.006Z,99853.05
2019-03-16T20:57:09.366Z,99854.56
2019-03-16T20:59:41.444Z,99852.09
2019-03-16T21:02:11.914Z,99854.61
2019-03-16T21:04:42.879Z,99850.38
2019-03-16T21:07:13.601Z,99852.75
2019-03-16T21:09:44.469Z,99848.56
2019-03-16T21:12:15.000Z,99856.46
2019-03-16T21:14:46.279Z,99857.99
2019-03-16T21:17:17.294Z,99856.88
2019-03-16T21:19:47.879Z,99864.40
2019-03-16T21:22:20.285Z,99871.58
2019-03-16T21:24:51.240Z,99868.25
2019-03-16T21:27:22.052Z,99862.36
2019-03-16T21:29:54.725Z,99860.23
2019-03-16T21:32:25.790Z,99867.02
2019-03-16T21:34:57.704Z,99867.44
2019-03-16T21:37:28.088Z,99856.14
2019-03-16T21:39:58.440Z,99848.16
2019-03-16T21:42:28.798Z,99854.42
2019-03-16T21:44:59.209Z,99848.50
2019-03-16T21:47:32.643Z,99848.36
2019-03-16T21:50:03.006Z,99850.55
2019-03-16T21:52:34.240Z,99844.71
2019-03-16T21:55:07.332Z,99842.01
2019-03-16T21:57:37.711Z,99835.44
2019-03-16T22:00:18.350Z,99841.87
2019-03-16T22:02:48.740Z,99844.24
2019-03-16T22:05:19.141Z,99838.98
2019-03-16T22:07:49.967Z,99834.85
2019-03-16T22:10:20.387Z,99836.56
2019-03-16T22:12:50.968Z,99837.27
2019-03-16T22:15:21.510Z,99840.23
2019-03-16T22:17:52.476Z,99836.37
2019-03-16T22:20:22.935Z,99840.94
2019-03-16T22:22:54.378Z,99843.48
2019-03-16T22:25:24.758Z,99855.47
2019-03-16T22:27:55.151Z,99844.32
2019-03-16T22:30:25.728Z,99844.32
2019-03-16T22:32:56.114Z,99840.80
2019-03-16T22:35:26.502Z,99836.57
2019-03-16T22:37:58.220Z,99833.70
2019-03-16T22:40:28.580Z,99829.84
2019-03-16T22:42:58.957Z,99824.25
2019-03-16T22:45:29.323Z,99822.94
2019-03-16T22:47:59.679Z,99822.42
2019-03-16T22:50:30.620Z,99816.80
2019-03-16T22:53:00.965Z,99822.56
2019-03-16T22:55:31.388Z,99819.19
2019-03-16T22:58:01.777Z,99820.18
2019-03-16T23:00:43.060Z,99818.02
2019-03-16T23:03:13.558Z,99816.84
2019-03-16T23:05:43.929Z,99817.03
2019-03-16T23:08:14.287Z,99818.53
2019-03-16T23:10:44.624Z,99815.83
2019-03-16T23:13:14.960Z,99818.23
2019-03-16T23:15:45.340Z,99821.60
2019-03-16T23:18:15.673Z,99821.45
2019-03-16T23:20:46.057Z,99822.80
2019-03-16T23:23:16.455Z,99814.01
2019-03-16T23:25:46.768Z,99811.50
2019-03-16T23:28:17.138Z,99812.63
2019-03-16T23:30:47.629Z,99808.38
2019-03-16T23:33:17.995Z,99811.58
2019-03-16T23:35:48.429Z,99809.71
2019-03-16T23:38:18.788Z,99807.19
2019-03-16T23:40:49.087Z,99809.70
2019-03-16T23:43:19.432Z,99814.11
2019-03-16T23:45:49.832Z,99814.98
2019-03-16T23:48:20.181Z,99821.59
2019-03-16T23:50:51.242Z,99824.35
2019-03-16T23:53:21.594Z,99816.04
2019-03-16T23:55:51.921Z,99817.87
2019-03-16T23:58:22.357Z,99818.85
